createdAt,value
2022-11-05T00:01:23.276Z,17.27
2022-11-05T00:06:40.858Z,27.25
2022-11-05T00:11:56.500Z,24.88
2022-11-05T00:16:54.695Z,20.30
2022-11-05T00:22:11.973Z,16.55
2022-11-05T00:27:10.459Z,19.20
2022-11-05T00:32:08.674Z,19.40
2022-11-05T00:37:08.278Z,18.50
2022-11-05T00:42:23.723Z,16.55
2022-11-05T00:47:39.077Z,15.77
2022-11-05T00:57:54.146Z,22.92
2022-11-05T01:02:52.493Z,16.27
2022-11-05T01:07:52.414Z,15.27
2022-11-05T01:12:50.832Z,16.85
2022-11-05T01:17:51.322Z,18.77
2022-11-05T01:22:49.538Z,18.70
2022-11-05T01:27:47.812Z,23.83
2022-11-05T01:32:46.047Z,19.63
2022-11-05T01:37:46.116Z,22.20
2022-11-05T01:42:44.575Z,19.77
2022-11-05T01:47:47.103Z,19.60
2022-11-05T01:52:47.335Z,17.15
2022-11-05T01:57:45.810Z,16.50
2022-11-05T02:02:44.337Z,22.38
2022-11-05T02:07:44.198Z,18.95
2022-11-05T02:12:45.627Z,17.90
2022-11-05T02:17:51.359Z,20.15
2022-11-05T02:23:08.542Z,16.00
2022-11-05T02:28:16.356Z,21.05
2022-11-05T02:33:24.286Z,20.00
2022-11-05T02:38:28.215Z,26.55
2022-11-05T02:43:32.212Z,15.87
2022-11-05T02:48:37.451Z,18.53
2022-11-05T02:53:39.960Z,16.50
2022-11-05T02:58:38.242Z,19.13
2022-11-05T03:03:38.900Z,21.50
2022-11-05T03:08:44.297Z,18.20
2022-11-05T03:13:48.911Z,24.20
2022-11-05T03:18:52.418Z,19.15
2022-11-05T03:23:53.331Z,20.90
2022-11-05T03:28:53.626Z,29.13
2022-11-05T03:33:54.589Z,28.90
2022-11-05T03:38:53.959Z,28.02
2022-11-05T03:43:55.870Z,28.80
2022-11-05T03:48:56.798Z,21.27
2022-11-05T03:53:57.339Z,21.95
2022-11-05T03:58:59.137Z,19.60
2022-11-05T04:03:59.079Z,19.73
2022-11-05T04:09:14.667Z,22.92
2022-11-05T04:14:12.873Z,18.40
2022-11-05T04:19:12.463Z,23.70
2022-11-05T04:24:09.705Z,22.40
2022-11-05T04:29:25.852Z,25.13
2022-11-05T04:34:25.398Z,24.52
2022-11-05T04:39:23.646Z,20.95
2022-11-05T04:44:21.879Z,22.38
2022-11-05T04:49:20.143Z,19.35
2022-11-05T04:54:19.731Z,21.52
2022-11-05T04:59:17.941Z,29.00
2022-11-05T05:04:16.162Z,27.50
2022-11-05T05:09:14.423Z,52.60
2022-11-05T05:14:14.011Z,26.23
2022-11-05T05:19:12.244Z,22.63
2022-11-05T05:24:11.098Z,23.80
2022-11-05T05:29:09.979Z,31.33
2022-11-05T05:34:12.169Z,22.67
2022-11-05T05:39:11.393Z,28.60
2022-11-05T05:44:09.651Z,32.28
2022-11-05T05:49:12.641Z,31.75
2022-11-05T05:54:11.750Z,24.13
2022-11-05T05:59:09.963Z,32.85
2022-11-05T06:04:10.221Z,26.23
2022-11-05T06:09:08.572Z,35.92
2022-11-05T06:14:06.854Z,47.33
2022-11-05T06:19:05.110Z,46.33
2022-11-05T06:24:04.893Z,35.65
2022-11-05T06:29:03.135Z,31.08
2022-11-05T06:34:01.369Z,36.05
2022-11-05T06:38:59.576Z,27.77
2022-11-05T06:43:59.204Z,35.70
2022-11-05T06:48:57.550Z,38.45
2022-11-05T06:53:56.173Z,38.53
2022-11-05T06:58:54.560Z,44.97
2022-11-05T07:03:54.334Z,32.53
2022-11-05T07:08:52.581Z,34.88
2022-11-05T07:13:50.972Z,34.10
2022-11-05T07:18:49.273Z,33.08
2022-11-05T07:23:49.015Z,31.13
2022-11-05T07:28:47.244Z,29.38
2022-11-05T07:33:45.591Z,26.65
2022-11-05T07:38:43.969Z,31.80
2022-11-05T07:43:43.707Z,30.30
2022-11-05T07:48:42.437Z,30.02
2022-11-05T07:53:45.043Z,29.63
2022-11-05T07:58:44.962Z,44.67
2022-11-05T08:03:43.291Z,33.03
2022-11-05T08:08:41.619Z,34.42
2022-11-05T08:13:40.286Z,28.63
2022-11-05T08:18:40.535Z,31.38
2022-11-05T08:23:39.473Z,34.78
2022-11-05T08:28:37.834Z,30.65
2022-11-05T08:33:36.123Z,26.48
2022-11-05T08:38:35.877Z,29.83
2022-11-05T08:43:34.227Z,26.60
2022-11-05T08:48:32.664Z,34.90
2022-11-05T08:53:31.499Z,34.63
2022-11-05T08:58:31.337Z,26.77
2022-11-05T09:03:29.651Z,25.20
2022-11-05T09:08:28.025Z,24.33
2022-11-05T09:13:26.961Z,26.63
2022-11-05T09:18:28.175Z,26.40
2022-11-05T09:23:26.684Z,26.60
2022-11-05T09:28:25.627Z,27.85
2022-11-05T09:33:25.493Z,23.08
2022-11-05T09:38:25.199Z,26.10
2022-11-05T09:43:31.399Z,27.48
2022-11-05T09:48:33.286Z,24.85
2022-11-05T09:53:33.498Z,31.23
2022-11-05T09:58:37.460Z,24.83
2022-11-05T10:03:37.814Z,24.87
2022-11-05T10:08:41.490Z,31.02
2022-11-05T10:13:42.211Z,26.70
2022-11-05T10:18:42.409Z,26.63
2022-11-05T10:23:42.356Z,27.13
2022-11-05T10:28:40.776Z,22.90
2022-11-05T10:33:40.940Z,24.52
2022-11-05T10:38:39.520Z,28.95
2022-11-05T10:43:43.519Z,28.02
2022-11-05T10:48:49.648Z,27.35
2022-11-05T10:53:55.952Z,26.83
2022-11-05T10:58:59.952Z,24.88
2022-11-05T11:04:22.014Z,26.52
2022-11-05T11:09:24.890Z,26.27
2022-11-05T11:14:24.587Z,30.20
2022-11-05T11:19:25.560Z,33.63
2022-11-05T11:24:23.966Z,27.67
2022-11-05T11:29:25.533Z,33.13
2022-11-05T11:34:28.666Z,30.88
2022-11-05T11:39:29.000Z,27.55
2022-11-05T11:44:29.691Z,24.40
2022-11-05T11:49:33.395Z,28.98
2022-11-05T11:54:32.716Z,27.50
2022-11-05T12:00:02.043Z,37.83
2022-11-05T12:04:59.687Z,26.52
2022-11-05T12:10:11.498Z,32.17
2022-11-05T12:15:22.053Z,34.63
2022-11-05T12:20:26.469Z,30.10
2022-11-05T12:25:27.979Z,30.70
2022-11-05T12:30:26.584Z,28.30
2022-11-05T12:35:31.646Z,33.45
2022-11-05T12:40:42.448Z,33.50
2022-11-05T12:45:45.551Z,26.30
2022-11-05T12:50:46.336Z,30.23
2022-11-05T12:55:48.758Z,30.48
2022-11-05T13:00:48.950Z,26.23
2022-11-05T13:05:49.872Z,30.52
2022-11-05T13:10:51.976Z,30.65
2022-11-05T13:15:51.988Z,30.30
2022-11-05T13:20:53.450Z,31.35
2022-11-05T13:25:54.339Z,29.95
2022-11-05T13:30:53.327Z,33.40
2022-11-05T13:36:16.384Z,29.95
2022-11-05T13:41:21.754Z,31.35
2022-11-05T13:46:34.881Z,29.77
2022-11-05T13:51:42.455Z,28.95
2022-11-05T13:56:55.200Z,32.80
2022-11-05T14:01:56.016Z,28.58
2022-11-05T14:07:05.771Z,27.35
2022-11-05T14:12:05.312Z,27.80
2022-11-05T14:17:16.844Z,28.50
2022-11-05T14:22:38.012Z,25.58
2022-11-05T14:27:43.959Z,28.60
2022-11-05T14:32:50.113Z,22.60
2022-11-05T14:37:54.023Z,25.92
2022-11-05T14:42:53.064Z,23.02
2022-11-05T14:47:55.006Z,28.10
2022-11-05T14:52:55.848Z,27.60
2022-11-05T14:58:06.015Z,27.45
2022-11-05T15:03:05.621Z,32.53
2022-11-05T15:08:18.928Z,27.33
2022-11-05T15:13:26.688Z,25.63
2022-11-05T15:18:30.508Z,30.45
2022-11-05T15:23:35.599Z,28.57
2022-11-05T15:28:37.148Z,27.92
2022-11-05T15:33:35.494Z,35.15
2022-11-05T15:38:35.181Z,29.30
2022-11-05T15:43:34.302Z,27.42
2022-11-05T15:48:34.612Z,34.83
2022-11-05T15:53:56.548Z,28.20
2022-11-05T15:58:54.662Z,33.35
2022-11-05T16:03:55.863Z,31.77
2022-11-05T16:08:54.346Z,25.90
2022-11-05T16:13:53.102Z,30.05
2022-11-05T16:18:51.345Z,31.08
2022-11-05T16:23:55.590Z,29.75
2022-11-05T16:28:53.863Z,30.83
2022-11-05T16:33:52.387Z,30.92
2022-11-05T16:38:50.552Z,33.30
2022-11-05T16:43:53.912Z,44.83
2022-11-05T16:48:52.116Z,36.03
2022-11-05T16:53:50.398Z,32.80
2022-11-05T16:58:49.870Z,37.35
2022-11-05T17:03:51.160Z,32.42
2022-11-05T17:08:49.869Z,29.70
2022-11-05T17:13:48.323Z,28.23
2022-11-05T17:18:46.564Z,33.22
2022-11-05T17:23:46.103Z,35.30
2022-11-05T17:28:44.365Z,29.30
2022-11-05T17:33:42.712Z,33.42
2022-11-05T17:38:41.310Z,29.27
2022-11-05T17:43:40.895Z,34.42
2022-11-05T17:48:39.375Z,30.05
2022-11-05T17:53:37.763Z,29.95
2022-11-05T17:58:36.348Z,38.88
2022-11-05T18:03:36.071Z,38.95
2022-11-05T18:08:34.683Z,38.28
2022-11-05T18:13:32.938Z,40.42
2022-11-05T18:18:31.375Z,37.30
2022-11-05T18:23:31.044Z,33.95
2022-11-05T18:28:32.138Z,38.70
2022-11-05T18:33:30.412Z,39.08
2022-11-05T18:38:28.723Z,36.70
2022-11-05T18:43:28.362Z,30.58
2022-11-05T18:48:26.577Z,37.33
2022-11-05T18:53:24.737Z,37.92
2022-11-05T18:58:22.980Z,47.40
2022-11-05T19:03:22.584Z,44.65
2022-11-05T19:08:20.858Z,47.00
2022-11-05T19:13:19.038Z,38.20
2022-11-05T19:18:17.255Z,38.15
2022-11-05T19:23:16.992Z,42.17
2022-11-05T19:28:15.464Z,38.15
2022-11-05T19:33:13.915Z,42.63
2022-11-05T19:38:12.301Z,44.47
2022-11-05T19:43:12.123Z,36.97
2022-11-05T19:48:13.503Z,37.03
2022-11-05T19:53:16.128Z,36.83
2022-11-05T19:58:16.012Z,41.45
2022-11-05T20:03:14.235Z,37.75
2022-11-05T20:08:12.676Z,41.95
2022-11-05T20:13:15.541Z,41.97
2022-11-05T20:18:18.259Z,41.55
2022-11-05T20:23:16.720Z,42.00
2022-11-05T20:28:15.035Z,40.47
2022-11-05T20:33:13.424Z,40.95
2022-11-05T20:38:13.283Z,43.45
2022-11-05T20:43:11.662Z,44.30
2022-11-05T20:48:10.147Z,45.00
2022-11-05T20:53:08.687Z,46.97
2022-11-05T20:58:08.275Z,43.47
2022-11-05T21:03:06.592Z,37.20
2022-11-05T21:08:04.872Z,40.88
2022-11-05T21:13:03.143Z,38.03
2022-11-05T21:18:02.822Z,33.25
2022-11-05T21:23:01.041Z,39.63
2022-11-05T21:27:59.355Z,33.65
2022-11-05T21:32:57.656Z,36.45
2022-11-05T21:37:57.392Z,32.53
2022-11-05T21:42:55.714Z,34.08
2022-11-05T21:47:53.921Z,29.33
2022-11-05T21:53:09.312Z,29.15
2022-11-05T21:58:29.900Z,36.35
2022-11-05T22:03:28.377Z,29.40
2022-11-05T22:08:27.327Z,31.15
2022-11-05T22:13:27.005Z,26.70
2022-11-05T22:18:25.263Z,31.20
2022-11-05T22:23:23.496Z,29.98
2022-11-05T22:28:21.730Z,31.08
2022-11-05T22:33:21.330Z,33.30
2022-11-05T22:38:19.545Z,30.50
2022-11-05T22:43:17.782Z,27.83
2022-11-05T22:48:16.248Z,25.60
2022-11-05T22:53:15.987Z,25.60
2022-11-05T22:58:14.462Z,28.27
2022-11-05T23:03:12.930Z,24.75
2022-11-05T23:08:28.758Z,27.85
2022-11-05T23:13:28.323Z,25.77
2022-11-05T23:18:44.090Z,28.55
2022-11-05T23:23:59.527Z,24.35
2022-11-05T23:28:59.083Z,26.33
2022-11-05T23:33:57.326Z,29.98
2022-11-05T23:38:55.479Z,27.23
2022-11-05T23:44:13.128Z,26.50
2022-11-05T23:49:12.715Z,29.50
2022-11-05T23:54:10.976Z,27.75
2022-11-05T23:59:09.205Z,26.55
